Wetterdaten: Woche 30.04.18 - 06.05.18 (KW18)
Datum Zeit Temperatur Luftfeuchte Luftdruck Niederschlag Windrichtung Sonnenschein Solar Wind
30.04.2018 00:00 15,8 C 58 % 996,2 hPa 0,0 l/m SW 0,00 h 0 W/m 7,5 km/h (2 Bft)
30.04.2018 01:00 17,0 C 50 % 996,2 hPa 0,0 l/m SW 0,00 h 0 W/m 14,2 km/h (3 Bft)
30.04.2018 02:00 17,8 C 48 % 996,3 hPa 0,0 l/m W 0,00 h 0 W/m 18,6 km/h (3 Bft)
30.04.2018 03:00 15,3 C 63 % 997,8 hPa 0,0 l/m W-NW 0,00 h 0 W/m 36,5 km/h (5 Bft)
30.04.2018 04:00 12,0 C 64 % 1000,3 hPa 0,0 l/m W 0,00 h 0 W/m 36,5 km/h (5 Bft)
30.04.2018 05:00 9,2 C 81 % 1001,9 hPa 0,4 l/m W-SW 0,00 h 0 W/m 21,6 km/h (4 Bft)
30.04.2018 06:00 8,0 C 88 % 1002,6 hPa 0,4 l/m SW 0,00 h 8 W/m 11,7 km/h (2 Bft)
30.04.2018 07:00 7,8 C 91 % 1002,6 hPa 0,2 l/m SW 0,08 h 60 W/m 9,7 km/h (2 Bft)
30.04.2018 08:00 9,1 C 89 % 1002,4 hPa 0,0 l/m SW 1,00 h 356 W/m 17,2 km/h (3 Bft)
30.04.2018 09:00 11,2 C 79 % 1002,4 hPa 0,0 l/m W 0,75 h 414 W/m 29,8 km/h (5 Bft)
30.04.2018 10:00 12,9 C 69 % 1002,4 hPa 0,0 l/m W-SW 0,92 h 614 W/m 29,4 km/h (5 Bft)
30.04.2018 11:00 14,8 C 64 % 1002,6 hPa 0,0 l/m SW 1,00 h 803 W/m 23,2 km/h (4 Bft)
30.04.2018 12:00 16,0 C 55 % 1002,7 hPa 0,0 l/m W-SW 1,00 h 843 W/m 27,1 km/h (4 Bft)
30.04.2018 13:00 17,0 C 52 % 1002,6 hPa 0,0 l/m W-SW 0,92 h 818 W/m 26,4 km/h (4 Bft)
30.04.2018 14:00 17,1 C 49 % 1002,7 hPa 0,0 l/m SW 0,58 h 625 W/m 22,5 km/h (4 Bft)
30.04.2018 15:00 18,0 C 41 % 1002,6 hPa 0,0 l/m W-NW 0,75 h 628 W/m 25,3 km/h (4 Bft)
30.04.2018 16:00 16,1 C 45 % 1003,0 hPa 0,0 l/m W 0,08 h 314 W/m 26,9 km/h (4 Bft)
30.04.2018 17:00 15,6 C 44 % 1003,5 hPa 0,0 l/m W 0,33 h 248 W/m 23,7 km/h (4 Bft)
30.04.2018 18:00 14,5 C 47 % 1003,8 hPa 0,0 l/m W-SW 0,00 h 83 W/m 19,5 km/h (3 Bft)
30.04.2018 19:00 13,6 C 49 % 1004,6 hPa 0,0 l/m W 0,00 h 34 W/m 13,3 km/h (3 Bft)
30.04.2018 20:00 12,7 C 52 % 1005,4 hPa 0,0 l/m W 0,00 h 10 W/m 13,9 km/h (3 Bft)
30.04.2018 21:00 11,7 C 59 % 1006,3 hPa 0,0 l/m W-NW 0,00 h 0 W/m 6,7 km/h (2 Bft)
30.04.2018 22:00 10,3 C 68 % 1006,8 hPa 0,0 l/m N 0,00 h 0 W/m 0,3 km/h (0 Bft)
30.04.2018 23:00 10,1 C 72 % 1007,5 hPa 0,0 l/m W-NW 0,00 h 0 W/m 2,9 km/h (1 Bft)
01.05.2018 00:00 10,2 C 74 % 1007,7 hPa 0,0 l/m N 0,00 h 0 W/m 0,9 km/h (0 Bft)
01.05.2018 01:00 10,1 C 73 % 1008,0 hPa 0,0 l/m W-SW 0,00 h 0 W/m 9,7 km/h (2 Bft)
01.05.2018 02:00 10,1 C 72 % 1008,2 hPa 0,0 l/m W-SW 0,00 h 0 W/m 11,3 km/h (2 Bft)
01.05.2018 03:00 9,6 C 74 % 1008,1 hPa 0,0 l/m W-SW 0,00 h 0 W/m 14,0 km/h (3 Bft)
01.05.2018 04:00 9,2 C 73 % 1008,4 hPa 0,0 l/m W-SW 0,00 h 0 W/m 14,6 km/h (3 Bft)
01.05.2018 05:00 8,9 C 73 % 1008,5 hPa 0,0 l/m W 0,00 h 0 W/m 13,3 km/h (3 Bft)
01.05.2018 06:00 8,7 C 74 % 1009,2 hPa 0,0 l/m W 0,00 h 8 W/m 9,1 km/h (2 Bft)
01.05.2018 07:00 8,3 C 77 % 1009,6 hPa 0,0 l/m W 0,00 h 26 W/m 9,8 km/h (2 Bft)
01.05.2018 08:00 8,2 C 79 % 1010,2 hPa 0,0 l/m W 0,00 h 49 W/m 4,8 km/h (1 Bft)
01.05.2018 09:00 8,1 C 82 % 1010,6 hPa 0,0 l/m W 0,00 h 74 W/m 3,8 km/h (1 Bft)
01.05.2018 10:00 8,1 C 83 % 1010,8 hPa 0,0 l/m N 0,00 h 101 W/m 1,2 km/h (1 Bft)
01.05.2018 11:00 8,6 C 81 % 1011,5 hPa 0,0 l/m SW 0,00 h 167 W/m 8,6 km/h (2 Bft)
01.05.2018 12:00 10,1 C 76 % 1011,5 hPa 0,0 l/m W 0,50 h 499 W/m 9,9 km/h (2 Bft)
01.05.2018 13:00 12,9 C 65 % 1011,1 hPa 0,0 l/m SW 1,00 h 925 W/m 16,4 km/h (3 Bft)
01.05.2018 14:00 13,9 C 60 % 1011,0 hPa 0,0 l/m W-SW 0,58 h 779 W/m 11,5 km/h (2 Bft)
01.05.2018 15:00 14,0 C 59 % 1010,6 hPa 0,0 l/m N 0,17 h 368 W/m 7,8 km/h (2 Bft)
01.05.2018 16:00 13,2 C 61 % 1010,4 hPa 0,0 l/m NW 0,00 h 249 W/m 8,7 km/h (2 Bft)
01.05.2018 17:00 13,2 C 61 % 1010,3 hPa 0,0 l/m N-NW 0,00 h 186 W/m 2,0 km/h (1 Bft)
01.05.2018 18:00 13,1 C 62 % 1010,3 hPa 0,0 l/m N 0,00 h 131 W/m 0,4 km/h (0 Bft)
01.05.2018 19:00 12,7 C 62 % 1010,4 hPa 0,0 l/m N-NW 0,00 h 60 W/m 4,4 km/h (1 Bft)
01.05.2018 20:00 11,9 C 66 % 1010,7 hPa 0,0 l/m N-NO 0,25 h 16 W/m 9,7 km/h (2 Bft)
01.05.2018 21:00 11,2 C 69 % 1011,1 hPa 0,0 l/m NO 0,00 h 0 W/m 7,9 km/h (2 Bft)
01.05.2018 22:00 10,2 C 71 % 1011,3 hPa 0,0 l/m NO 0,00 h 0 W/m 7,5 km/h (2 Bft)
01.05.2018 23:00 9,4 C 74 % 1011,2 hPa 0,0 l/m NO 0,00 h 0 W/m 6,4 km/h (2 Bft)
02.05.2018 00:00 9,0 C 75 % 1011,1 hPa 0,0 l/m NO 0,00 h 0 W/m 6,7 km/h (2 Bft)
02.05.2018 01:00 8,7 C 76 % 1011,3 hPa 0,0 l/m N-NO 0,00 h 0 W/m 10,1 km/h (2 Bft)
02.05.2018 02:00 8,5 C 75 % 1010,9 hPa 0,0 l/m NO 0,00 h 0 W/m 10,6 km/h (2 Bft)
02.05.2018 03:00 8,3 C 74 % 1010,5 hPa 0,0 l/m NO 0,00 h 0 W/m 11,8 km/h (2 Bft)
02.05.2018 04:00 8,0 C 75 % 1010,3 hPa 0,0 l/m NO 0,00 h 0 W/m 10,5 km/h (2 Bft)
02.05.2018 05:00 7,8 C 76 % 1010,2 hPa 0,0 l/m NO 0,00 h 0 W/m 9,7 km/h (2 Bft)
02.05.2018 06:00 7,6 C 76 % 1010,0 hPa 0,0 l/m NO 0,00 h 22 W/m 6,4 km/h (2 Bft)
02.05.2018 07:00 7,7 C 78 % 1010,2 hPa 0,0 l/m NO 0,00 h 87 W/m 8,2 km/h (2 Bft)
02.05.2018 08:00 8,6 C 76 % 1010,0 hPa 0,0 l/m N-NO 0,25 h 216 W/m 12,8 km/h (3 Bft)
02.05.2018 09:00 10,0 C 70 % 1009,4 hPa 0,0 l/m NO 0,25 h 260 W/m 12,8 km/h (3 Bft)
02.05.2018 10:00 10,9 C 67 % 1009,1 hPa 0,0 l/m O-NO 0,42 h 389 W/m 13,4 km/h (3 Bft)
02.05.2018 11:00 12,5 C 65 % 1008,6 hPa 0,0 l/m NO 0,67 h 427 W/m 13,0 km/h (3 Bft)
02.05.2018 12:00 14,0 C 63 % 1008,0 hPa 0,0 l/m O-NO 0,67 h 546 W/m 13,3 km/h (3 Bft)
02.05.2018 13:00 16,0 C 57 % 1007,8 hPa 0,0 l/m NO 0,92 h 661 W/m 14,6 km/h (3 Bft)
02.05.2018 14:00 16,2 C 57 % 1007,4 hPa 0,0 l/m O 0,58 h 482 W/m 13,6 km/h (3 Bft)
02.05.2018 15:00 16,6 C 57 % 1007,0 hPa 0,0 l/m O 0,92 h 563 W/m 11,4 km/h (2 Bft)
02.05.2018 16:00 16,8 C 58 % 1006,7 hPa 0,0 l/m O 0,58 h 422 W/m 11,7 km/h (2 Bft)
02.05.2018 17:00 16,3 C 60 % 1006,8 hPa 0,0 l/m O-SO 0,08 h 168 W/m 10,9 km/h (2 Bft)
02.05.2018 18:00 15,7 C 62 % 1007,0 hPa 0,0 l/m O-SO 0,00 h 123 W/m 4,3 km/h (1 Bft)
02.05.2018 19:00 15,3 C 64 % 1007,2 hPa 0,0 l/m O-SO 0,00 h 64 W/m 2,8 km/h (1 Bft)
02.05.2018 20:00 13,5 C 75 % 1007,6 hPa 0,0 l/m N 0,00 h 16 W/m 0,0 km/h (0 Bft)
02.05.2018 21:00 11,8 C 79 % 1008,1 hPa 0,0 l/m N 0,00 h 0 W/m 2,8 km/h (1 Bft)
02.05.2018 22:00 11,4 C 79 % 1008,4 hPa 0,0 l/m O 0,00 h 0 W/m 4,3 km/h (1 Bft)
02.05.2018 23:00 11,6 C 77 % 1008,3 hPa 0,0 l/m N 0,00 h 0 W/m 0,3 km/h (0 Bft)
03.05.2018 00:00 11,5 C 78 % 1008,2 hPa 0,0 l/m N 0,00 h 0 W/m 0,4 km/h (0 Bft)
03.05.2018 01:00 11,0 C 79 % 1008,8 hPa 0,0 l/m N 0,00 h 0 W/m 0,0 km/h (0 Bft)
03.05.2018 02:00 10,8 C 80 % 1008,8 hPa 0,0 l/m O 0,00 h 0 W/m 3,8 km/h (1 Bft)
03.05.2018 03:00 10,7 C 80 % 1008,8 hPa 0,0 l/m N 0,00 h 0 W/m 2,0 km/h (1 Bft)
03.05.2018 04:00 10,5 C 80 % 1008,9 hPa 0,0 l/m N 0,00 h 0 W/m 0,0 km/h (0 Bft)
03.05.2018 05:00 10,4 C 79 % 1009,0 hPa 0,0 l/m N 0,00 h 0 W/m 0,0 km/h (0 Bft)
03.05.2018 06:00 10,3 C 79 % 1009,3 hPa 0,0 l/m O 0,00 h 9 W/m 1,9 km/h (1 Bft)
03.05.2018 07:00 10,3 C 77 % 1009,8 hPa 0,0 l/m O 0,00 h 28 W/m 4,6 km/h (1 Bft)
03.05.2018 08:00 10,7 C 77 % 1010,4 hPa 0,0 l/m O 0,00 h 57 W/m 4,0 km/h (1 Bft)
03.05.2018 09:00 11,2 C 75 % 1010,6 hPa 0,0 l/m O 0,00 h 117 W/m 7,4 km/h (2 Bft)
03.05.2018 10:00 12,4 C 68 % 1010,9 hPa 0,0 l/m N-NO 0,42 h 333 W/m 10,1 km/h (2 Bft)
03.05.2018 11:00 14,0 C 61 % 1011,0 hPa 0,0 l/m NO 0,92 h 474 W/m 15,4 km/h (3 Bft)
03.05.2018 12:00 15,2 C 58 % 1010,9 hPa 0,0 l/m NO 0,83 h 563 W/m 15,8 km/h (3 Bft)
03.05.2018 13:00 15,9 C 57 % 1010,8 hPa 0,0 l/m O-NO 0,92 h 564 W/m 17,0 km/h (3 Bft)
03.05.2018 14:00 16,6 C 58 % 1010,5 hPa 0,0 l/m NO 1,00 h 562 W/m 17,6 km/h (3 Bft)
03.05.2018 15:00 17,8 C 56 % 1010,3 hPa 0,0 l/m NO 1,00 h 659 W/m 21,7 km/h (4 Bft)
03.05.2018 16:00 17,3 C 58 % 1010,5 hPa 0,0 l/m N-NO 0,67 h 457 W/m 19,8 km/h (4 Bft)
03.05.2018 17:00 16,4 C 61 % 1010,4 hPa 0,0 l/m N-NO 0,17 h 213 W/m 21,2 km/h (4 Bft)
03.05.2018 18:00 16,3 C 62 % 1010,4 hPa 0,0 l/m N-NO 0,50 h 188 W/m 19,0 km/h (3 Bft)
03.05.2018 19:00 15,5 C 64 % 1010,9 hPa 0,0 l/m N-NO 0,00 h 54 W/m 20,1 km/h (4 Bft)
03.05.2018 20:00 14,8 C 67 % 1011,5 hPa 0,0 l/m N-NO 0,00 h 10 W/m 15,0 km/h (3 Bft)
03.05.2018 21:00 14,1 C 69 % 1012,1 hPa 0,0 l/m N-NO 0,00 h 0 W/m 13,6 km/h (3 Bft)
03.05.2018 22:00 13,9 C 70 % 1012,2 hPa 0,0 l/m N-NO 0,00 h 0 W/m 12,6 km/h (3 Bft)
03.05.2018 23:00 13,8 C 70 % 1012,3 hPa 0,0 l/m N-NO 0,00 h 0 W/m 13,3 km/h (3 Bft)
04.05.2018 00:00 13,8 C 70 % 1012,7 hPa 0,0 l/m N-NO 0,00 h 0 W/m 11,7 km/h (2 Bft)
04.05.2018 01:00 13,4 C 73 % 1012,4 hPa 0,0 l/m N-NO 0,00 h 0 W/m 13,0 km/h (3 Bft)
04.05.2018 02:00 12,5 C 77 % 1012,1 hPa 0,0 l/m N-NO 0,00 h 0 W/m 12,1 km/h (2 Bft)
04.05.2018 03:00 12,5 C 78 % 1012,4 hPa 0,0 l/m NO 0,00 h 0 W/m 16,5 km/h (3 Bft)
04.05.2018 04:00 12,4 C 79 % 1012,4 hPa 0,0 l/m NO 0,00 h 0 W/m 13,7 km/h (3 Bft)
04.05.2018 05:00 12,2 C 80 % 1012,4 hPa 0,0 l/m NO 0,00 h 0 W/m 12,4 km/h (3 Bft)
04.05.2018 06:00 12,0 C 80 % 1012,5 hPa 0,0 l/m NO 0,58 h 43 W/m 12,6 km/h (3 Bft)
04.05.2018 07:00 11,8 C 81 % 1012,8 hPa 0,0 l/m NO 0,83 h 156 W/m 16,8 km/h (3 Bft)
04.05.2018 08:00 12,5 C 79 % 1013,1 hPa 0,0 l/m O-NO 0,33 h 166 W/m 15,8 km/h (3 Bft)
04.05.2018 09:00 13,0 C 79 % 1013,1 hPa 0,0 l/m O-NO 0,00 h 190 W/m 14,8 km/h (3 Bft)
04.05.2018 10:00 14,9 C 76 % 1012,8 hPa 0,0 l/m NO 0,33 h 395 W/m 19,4 km/h (3 Bft)
04.05.2018 11:00 16,8 C 71 % 1012,9 hPa 0,0 l/m O-NO 0,42 h 415 W/m 20,6 km/h (4 Bft)
04.05.2018 12:00 16,6 C 72 % 1013,1 hPa 0,0 l/m O-NO 0,33 h 487 W/m 24,1 km/h (4 Bft)
04.05.2018 13:00 17,6 C 68 % 1013,0 hPa 0,0 l/m O-NO 0,33 h 365 W/m 24,5 km/h (4 Bft)
04.05.2018 14:00 18,8 C 66 % 1012,9 hPa 0,0 l/m O 0,83 h 562 W/m 27,4 km/h (4 Bft)
04.05.2018 15:00 18,7 C 68 % 1012,9 hPa 0,0 l/m O-NO 0,25 h 330 W/m 26,8 km/h (4 Bft)
04.05.2018 16:00 18,4 C 69 % 1012,9 hPa 0,0 l/m O 0,08 h 245 W/m 23,6 km/h (4 Bft)
04.05.2018 17:00 18,6 C 69 % 1012,9 hPa 0,0 l/m O 0,00 h 183 W/m 22,0 km/h (4 Bft)
04.05.2018 18:00 18,4 C 70 % 1013,1 hPa 0,0 l/m O-NO 0,00 h 139 W/m 19,3 km/h (3 Bft)
04.05.2018 19:00 18,0 C 73 % 1013,2 hPa 0,0 l/m O 0,00 h 57 W/m 12,1 km/h (2 Bft)
04.05.2018 20:00 17,2 C 76 % 1013,4 hPa 0,0 l/m O 0,00 h 12 W/m 7,8 km/h (2 Bft)
04.05.2018 21:00 16,4 C 79 % 1014,0 hPa 0,0 l/m O 0,00 h 0 W/m 7,8 km/h (2 Bft)
04.05.2018 22:00 15,9 C 81 % 1014,4 hPa 0,0 l/m O 0,00 h 0 W/m 6,0 km/h (2 Bft)
04.05.2018 23:00 16,0 C 81 % 1014,6 hPa 0,0 l/m O-NO 0,00 h 0 W/m 14,0 km/h (3 Bft)
05.05.2018 00:00 15,7 C 82 % 1014,8 hPa 0,0 l/m NO 0,00 h 0 W/m 10,7 km/h (2 Bft)
05.05.2018 01:00 14,9 C 76 % 1015,0 hPa 0,0 l/m NO 0,00 h 0 W/m 11,8 km/h (2 Bft)
05.05.2018 02:00 14,5 C 76 % 1014,7 hPa 0,0 l/m NO 0,00 h 0 W/m 12,1 km/h (2 Bft)
05.05.2018 03:00 13,6 C 76 % 1014,9 hPa 0,0 l/m NO 0,00 h 0 W/m 11,0 km/h (2 Bft)
05.05.2018 04:00 12,4 C 77 % 1015,0 hPa 0,0 l/m N-NO 0,00 h 0 W/m 11,8 km/h (2 Bft)
05.05.2018 05:00 11,7 C 79 % 1014,9 hPa 0,0 l/m NO 0,00 h 0 W/m 15,7 km/h (3 Bft)
05.05.2018 06:00 11,7 C 79 % 1015,0 hPa 0,0 l/m N-NO 0,08 h 25 W/m 16,0 km/h (3 Bft)
05.05.2018 07:00 12,0 C 78 % 1015,4 hPa 0,0 l/m NO 0,00 h 61 W/m 16,4 km/h (3 Bft)
05.05.2018 08:00 13,4 C 75 % 1015,7 hPa 0,0 l/m O-NO 0,67 h 302 W/m 19,4 km/h (3 Bft)
05.05.2018 09:00 15,5 C 73 % 1015,8 hPa 0,0 l/m O 0,83 h 419 W/m 21,7 km/h (4 Bft)
05.05.2018 10:00 17,4 C 70 % 1015,7 hPa 0,0 l/m O-NO 0,92 h 610 W/m 27,1 km/h (4 Bft)
05.05.2018 11:00 19,0 C 68 % 1015,6 hPa 0,0 l/m O-NO 1,00 h 872 W/m 28,2 km/h (4 Bft)
05.05.2018 12:00 20,5 C 62 % 1015,5 hPa 0,0 l/m O-NO 0,92 h 858 W/m 29,8 km/h (5 Bft)
05.05.2018 13:00 21,7 C 58 % 1015,3 hPa 0,0 l/m O-NO 1,00 h 848 W/m 29,1 km/h (5 Bft)
05.05.2018 14:00 22,4 C 58 % 1015,1 hPa 0,0 l/m O-NO 0,58 h 682 W/m 25,9 km/h (4 Bft)
05.05.2018 15:00 22,1 C 58 % 1015,1 hPa 0,0 l/m O 0,50 h 531 W/m 26,8 km/h (4 Bft)
05.05.2018 16:00 22,2 C 56 % 1014,9 hPa 0,0 l/m O-NO 0,67 h 502 W/m 28,2 km/h (4 Bft)
05.05.2018 17:00 21,9 C 57 % 1015,0 hPa 0,0 l/m O-SO 0,17 h 247 W/m 24,7 km/h (4 Bft)
05.05.2018 18:00 21,7 C 58 % 1015,0 hPa 0,0 l/m O 0,75 h 226 W/m 27,5 km/h (4 Bft)
05.05.2018 19:00 20,5 C 60 % 1015,2 hPa 0,0 l/m O 0,00 h 67 W/m 23,3 km/h (4 Bft)
05.05.2018 20:00 19,2 C 63 % 1015,7 hPa 0,0 l/m O 0,17 h 17 W/m 14,1 km/h (3 Bft)
05.05.2018 21:00 17,9 C 69 % 1016,3 hPa 0,0 l/m O-NO 0,00 h 0 W/m 10,2 km/h (2 Bft)
05.05.2018 22:00 17,1 C 72 % 1016,6 hPa 0,0 l/m O-NO 0,00 h 0 W/m 11,1 km/h (2 Bft)
05.05.2018 23:00 16,0 C 76 % 1016,5 hPa 0,0 l/m NO 0,00 h 0 W/m 11,7 km/h (2 Bft)
06.05.2018 00:00 15,2 C 79 % 1016,5 hPa 0,0 l/m NO 0,00 h 0 W/m 9,4 km/h (2 Bft)
06.05.2018 01:00 14,5 C 81 % 1016,5 hPa 0,0 l/m O-NO 0,00 h 0 W/m 12,6 km/h (3 Bft)
06.05.2018 02:00 13,7 C 83 % 1016,7 hPa 0,0 l/m NO 0,00 h 0 W/m 8,3 km/h (2 Bft)
06.05.2018 03:00 12,9 C 86 % 1016,9 hPa 0,0 l/m NO 0,00 h 0 W/m 6,0 km/h (2 Bft)
06.05.2018 04:00 12,4 C 87 % 1017,0 hPa 0,0 l/m N-NO 0,00 h 0 W/m 6,2 km/h (2 Bft)
06.05.2018 05:00 11,8 C 89 % 1016,8 hPa 0,0 l/m N-NO 0,00 h 5 W/m 6,7 km/h (2 Bft)
06.05.2018 06:00 11,2 C 91 % 1017,0 hPa 0,0 l/m N-NO 0,00 h 36 W/m 7,8 km/h (2 Bft)
06.05.2018 07:00 11,7 C 88 % 1017,4 hPa 0,0 l/m NO 0,42 h 131 W/m 13,3 km/h (3 Bft)
06.05.2018 08:00 12,7 C 83 % 1017,8 hPa 0,0 l/m O-NO 0,17 h 204 W/m 15,0 km/h (3 Bft)
06.05.2018 09:00 15,0 C 77 % 1017,7 hPa 0,0 l/m O 0,75 h 396 W/m 16,2 km/h (3 Bft)
06.05.2018 10:00 17,5 C 69 % 1017,4 hPa 0,0 l/m O-NO 0,92 h 604 W/m 19,3 km/h (3 Bft)
06.05.2018 11:00 20,0 C 62 % 1017,1 hPa 0,0 l/m O 1,00 h 761 W/m 21,6 km/h (4 Bft)
06.05.2018 12:00 21,9 C 55 % 1016,8 hPa 0,0 l/m O-SO 1,00 h 826 W/m 24,0 km/h (4 Bft)
06.05.2018 13:00 23,0 C 51 % 1016,2 hPa 0,0 l/m O 1,00 h 843 W/m 23,6 km/h (4 Bft)
06.05.2018 14:00 23,9 C 46 % 1015,7 hPa 0,0 l/m O 1,00 h 811 W/m 24,0 km/h (4 Bft)
06.05.2018 15:00 24,3 C 44 % 1015,3 hPa 0,0 l/m NO 1,00 h 728 W/m 22,8 km/h (4 Bft)
06.05.2018 16:00 24,2 C 43 % 1015,1 hPa 0,0 l/m O-NO 1,00 h 607 W/m 22,5 km/h (4 Bft)
06.05.2018 17:00 23,8 C 42 % 1014,8 hPa 0,0 l/m O-NO 1,00 h 455 W/m 22,5 km/h (4 Bft)
06.05.2018 18:00 23,0 C 42 % 1014,6 hPa 0,0 l/m O-NO 1,00 h 285 W/m 21,8 km/h (4 Bft)
06.05.2018 19:00 21,4 C 45 % 1014,7 hPa 0,0 l/m NO 0,42 h 98 W/m 16,9 km/h (3 Bft)
06.05.2018 20:00 19,4 C 49 % 1015,0 hPa 0,0 l/m O-NO 0,08 h 15 W/m 12,1 km/h (2 Bft)
06.05.2018 21:00 17,8 C 49 % 1015,4 hPa 0,0 l/m O-NO 0,00 h 0 W/m 11,3 km/h (2 Bft)
06.05.2018 22:00 16,4 C 52 % 1015,7 hPa 0,0 l/m NO 0,00 h 0 W/m 8,6 km/h (2 Bft)
06.05.2018 23:00 15,3 C 52 % 1015,6 hPa 0,0 l/m O-NO 0,00 h 0 W/m 10,5 km/h (2 Bft)
Min-Datum _ 30.04.18 30.04.18 30.04.18 - - - - 30.04.18
_ Min-Zeit 07:55 15:45 01:10 - - - - 00:10
Minimum _ 7,6 C 39 % 995,8 hPa - - - - 0,0 km/h (0 Bft)
Max-Datum _ 06.05.18 30.04.18 06.05.18 30.04.18 - 30.04.18 01.05.18 30.04.18
_ Max-Zeit 15:15 07:55 08:40 05:05 - 07:55 13:15 04:40
Maximum _ 24,6 C 93 % 1017,9 hPa 0,4 l/m - 0,08 h 1123 W/m 46,7 km/h
W (6 Bft)
Durchschnitt _ 14,2 C 68 % 1010,9 hPa #1,0 l/m NO #45:00 h 331 W/m 14,0 km/h (3 Bft)